ADDS METAR Data INFO
IDs: Format: Raw Decoded Include TAF

Data at: 2303 UTC 21 Feb 2018

KCDI 212255Z AUTO 01008KT 10SM OVC015 08/05 A3046 RMK AO2 T00770048
KCDI 212235Z AUTO 02007KT 10SM OVC013 08/05 A3044 RMK AO2 T00790051
KCDI 212215Z AUTO 36005KT 10SM OVC013 08/05 A3044 RMK AO2 T00820053
KCDI 212155Z AUTO 02009G14KT 10SM OVC013 08/06 A3042 RMK AO2 T00830060
KCDI 212135Z AUTO 01008KT 10SM OVC009 08/06 A3042 RMK AO2 T00830062
KCDI 212116Z AUTO 36009G15KT 10SM OVC011 09/07 A3041 RMK AO2 T00860065
KCDI 212055Z AUTO 35007KT 10SM OVC011 09/07 A3041 RMK AO2 T00900066
KCDI 212035Z AUTO 01008KT 10SM OVC011 09/07 A3040 RMK AO2 T00920069
KCDI 212015Z AUTO 34010KT 310V010 10SM OVC011 10/07 A3039 RMK AO2 T00950072
KCDI 211955Z AUTO 35009G17KT 10SM RA OVC011 10/08 A3039 RMK AO2 T01010078
KCDI 211935Z AUTO 35005G14KT 10SM OVC009 11/09 A3037 RMK AO2 T01090090
KCDI 211915Z AUTO 34008G14KT 10SM -RA BKN009 OVC014 12/10 A3036 RMK AO2 T01160096
KCDI 211855Z AUTO 32009KT 7SM -DZ BKN013 OVC018 15/13 A3035 RMK AO2 T01460125
KCDI 211836Z AUTO 00000KT 10SM DZ BKN013 BKN019 OVC030 15/12 A3034 RMK AO2 T01450124
KCDI 211815Z AUTO 00000KT 10SM -RA BKN011 BKN030 OVC050 15/12 A3034 RMK AO2 T01470122
KCDI 211755Z AUTO 02004KT 10SM SCT011 SCT034 OVC050 15/12 A3033 RMK AO2 T01460121 10199 20142
KCDI 211735Z AUTO 02003KT 10SM OVC050 15/12 A3033 RMK AO2 T01480123
KCDI 211715Z AUTO 00000KT 10SM OVC044 15/13 A3033 RMK AO2 T01470125
KCDI 211655Z AUTO 00000KT 10SM -DZ OVC040 14/12 A3033 RMK AO2 T01420121
KCDI 211635Z AUTO 33003KT 5SM DZ OVC037 14/12 A3033 RMK AO2 T01420119
KCDI 211615Z AUTO 33005KT 7SM DZ OVC031 15/11 A3033 RMK AO2 T01490111
KCDI 211555Z AUTO 35004KT 10SM OVC029 16/11 A3031 RMK AO2 T01560107
KCDI 211535Z AUTO 34007KT 310V010 10SM BKN027 OVC032 16/11 A3029 RMK AO2 T01600110
KCDI 211515Z AUTO 34009G16KT 10SM SCT027 OVC034 18/11 A3027 RMK AO2 T01780112
KCDI 211455Z AUTO 26003G27KT 10SM BKN036 OVC041 19/13 A3026 RMK AO2 T01920129
KCDI 211435Z AUTO 29006KT 10SM OVC036 20/13 A3025 RMK AO2 T01960125
KCDI 211415Z AUTO 23004KT 10SM OVC036 20/12 A3024 RMK AO2 T01950118
KCDI 211355Z AUTO 21007KT 180V240 10SM BKN038 OVC046 20/12 A3023 RMK AO2 T01960117
KCDI 211335Z AUTO 20006G16KT 10SM BKN044 OVC060 20/12 A3021 RMK AO2 T01980118
KCDI 211315Z AUTO 19010G16KT 10SM BKN044 BKN060 OVC085 19/12 A3020 RMK AO2 T01920116
KCDI 211255Z AUTO 19009G15KT 10SM SCT070 OVC085 19/12 A3019 RMK AO2 T01900115
KCDI 210756Z AUTO 19007KT 10SM OVC080 20/11 A3017 RMK AO2 T01960110
KCDI 210735Z AUTO 19006KT 10SM OVC080 20/11 A3017 RMK AO2 T01950110
KCDI 210715Z AUTO 20007KT 10SM OVC080 20/11 A3017 RMK AO2 T01950112
KCDI 210656Z AUTO 19007KT 10SM OVC080 19/11 A3018 RMK AO2 T01870113
KCDI 210635Z AUTO 20005KT 10SM OVC080 18/11 A3018 RMK AO2 T01840111
KCDI 210615Z AUTO 19004KT 10SM OVC080 18/11 A3018 RMK AO2 T01810111
KCDI 210556Z AUTO 19004KT 10SM BKN080 18/11 A3018 RMK AO2 T01810110 10196 20117
KCDI 201515Z AUTO 20012G22KT 10SM SCT110 21/13 A3020 RMK AO2 T02110128
KCDI 201455Z AUTO 21012G20KT 10SM SCT110 21/13 A3021 RMK AO2 T02070127
KCDI 201435Z AUTO 19016G19KT 10SM CLR 20/12 A3021 RMK AO2 T02010123
KCDI 201415Z AUTO 20012G19KT 10SM CLR 19/12 A3021 RMK AO2 T01920119
KCDI 201355Z AUTO 19011G18KT 10SM CLR 19/12 A3021 RMK AO2 T01880118
KCDI 201335Z AUTO 19008KT 10SM CLR 18/12 A3021 RMK AO2 T01770116
KCDI 201315Z AUTO 20007G14KT 10SM CLR 17/11 A3021 RMK AO2 T01710114
KCDI 201255Z AUTO 20009KT 10SM CLR 17/11 A3020 RMK AO2 T01650112
KCDI 201235Z AUTO 20006KT 10SM BKN090 16/11 A3020 RMK AO2 T01610110
KCDI 201215Z AUTO 21005KT 10SM OVC090 16/11 A3019 RMK AO2 T01610111
KCDI 201155Z AUTO 20004KT 10SM OVC090 16/11 A3019 RMK AO2 T01600111 10163 20155
KCDI 201135Z AUTO 21005KT 10SM SCT049 OVC090 16/11 A3019 RMK AO2 T01600111
KCDI 201115Z AUTO 20006KT 10SM BKN090 16/11 A3019 RMK AO2 T01550110